sensor_id;sensor_type;location;lat;lon;timestamp;P1;durP1;ratioP1;P2;durP2;ratioP2
74670;SDS011;63196;39.564;2.628;2023-06-10T00:01:38;8.00;;;2.30;;
74670;SDS011;63196;39.564;2.628;2023-06-10T00:04:03;7.10;;;2.50;;
74670;SDS011;63196;39.564;2.628;2023-06-10T00:06:29;8.70;;;2.70;;
74670;SDS011;63196;39.564;2.628;2023-06-10T00:09:02;7.30;;;2.50;;
74670;SDS011;63196;39.564;2.628;2023-06-10T00:11:29;5.90;;;2.70;;
74670;SDS011;63196;39.564;2.628;2023-06-10T00:13:55;6.50;;;2.40;;
74670;SDS011;63196;39.564;2.628;2023-06-10T00:16:20;9.70;;;2.90;;
74670;SDS011;63196;39.564;2.628;2023-06-10T00:18:46;6.60;;;2.50;;
74670;SDS011;63196;39.564;2.628;2023-06-10T00:21:12;4.30;;;2.00;;
74670;SDS011;63196;39.564;2.628;2023-06-10T00:23:38;7.90;;;2.80;;
74670;SDS011;63196;39.564;2.628;2023-06-10T00:26:03;7.70;;;2.30;;
74670;SDS011;63196;39.564;2.628;2023-06-10T00:28:29;7.50;;;2.50;;
74670;SDS011;63196;39.564;2.628;2023-06-10T00:30:55;7.00;;;3.00;;
74670;SDS011;63196;39.564;2.628;2023-06-10T00:33:21;5.20;;;2.20;;
74670;SDS011;63196;39.564;2.628;2023-06-10T00:35:46;8.00;;;3.00;;
74670;SDS011;63196;39.564;2.628;2023-06-10T00:38:13;5.30;;;2.40;;
74670;SDS011;63196;39.564;2.628;2023-06-10T00:40:38;6.70;;;2.80;;
74670;SDS011;63196;39.564;2.628;2023-06-10T00:43:04;5.10;;;2.30;;
74670;SDS011;63196;39.564;2.628;2023-06-10T00:45:29;5.70;;;2.80;;
74670;SDS011;63196;39.564;2.628;2023-06-10T00:47:55;7.10;;;2.30;;
74670;SDS011;63196;39.564;2.628;2023-06-10T00:50:20;6.40;;;2.80;;
74670;SDS011;63196;39.564;2.628;2023-06-10T00:52:46;6.80;;;2.60;;
74670;SDS011;63196;39.564;2.628;2023-06-10T00:55:14;6.40;;;2.60;;
74670;SDS011;63196;39.564;2.628;2023-06-10T00:57:40;6.10;;;2.10;;
74670;SDS011;63196;39.564;2.628;2023-06-10T01:00:05;5.00;;;2.30;;
74670;SDS011;63196;39.564;2.628;2023-06-10T01:02:33;6.60;;;2.50;;
74670;SDS011;63196;39.564;2.628;2023-06-10T01:04:59;6.70;;;2.30;;
74670;SDS011;63196;39.564;2.628;2023-06-10T01:07:28;8.90;;;3.30;;
74670;SDS011;63196;39.564;2.628;2023-06-10T01:12:35;8.30;;;2.60;;
74670;SDS011;63196;39.564;2.628;2023-06-10T01:15:04;5.60;;;2.50;;
74670;SDS011;63196;39.564;2.628;2023-06-10T01:17:30;8.70;;;2.40;;
74670;SDS011;63196;39.564;2.628;2023-06-10T01:19:58;6.30;;;2.40;;
74670;SDS011;63196;39.564;2.628;2023-06-10T01:22:24;5.80;;;2.60;;
74670;SDS011;63196;39.564;2.628;2023-06-10T01:24:51;6.00;;;2.20;;
74670;SDS011;63196;39.564;2.628;2023-06-10T01:27:17;5.50;;;2.50;;
74670;SDS011;63196;39.564;2.628;2023-06-10T01:29:50;9.90;;;2.80;;
74670;SDS011;63196;39.564;2.628;2023-06-10T01:32:21;8.40;;;2.80;;
74670;SDS011;63196;39.564;2.628;2023-06-10T01:34:48;7.10;;;3.10;;
74670;SDS011;63196;39.564;2.628;2023-06-10T01:37:16;9.50;;;3.40;;
74670;SDS011;63196;39.564;2.628;2023-06-10T01:39:43;8.20;;;3.50;;
74670;SDS011;63196;39.564;2.628;2023-06-10T01:42:09;10.60;;;3.10;;
74670;SDS011;63196;39.564;2.628;2023-06-10T01:44:35;9.90;;;3.10;;
74670;SDS011;63196;39.564;2.628;2023-06-10T01:47:00;9.80;;;2.90;;
74670;SDS011;63196;39.564;2.628;2023-06-10T01:49:26;7.30;;;2.90;;
74670;SDS011;63196;39.564;2.628;2023-06-10T01:51:53;8.50;;;2.50;;
74670;SDS011;63196;39.564;2.628;2023-06-10T01:54:19;8.20;;;2.50;;
74670;SDS011;63196;39.564;2.628;2023-06-10T01:56:44;7.90;;;3.10;;
74670;SDS011;63196;39.564;2.628;2023-06-10T01:59:09;7.20;;;3.20;;
74670;SDS011;63196;39.564;2.628;2023-06-10T02:01:35;6.10;;;2.90;;
74670;SDS011;63196;39.564;2.628;2023-06-10T02:04:00;9.30;;;3.20;;
74670;SDS011;63196;39.564;2.628;2023-06-10T02:06:25;7.90;;;2.90;;
74670;SDS011;63196;39.564;2.628;2023-06-10T02:08:51;5.90;;;2.40;;
74670;SDS011;63196;39.564;2.628;2023-06-10T02:11:16;6.80;;;2.80;;
74670;SDS011;63196;39.564;2.628;2023-06-10T02:13:42;6.00;;;2.20;;
74670;SDS011;63196;39.564;2.628;2023-06-10T02:16:07;9.60;;;2.40;;
74670;SDS011;63196;39.564;2.628;2023-06-10T02:18:34;7.10;;;2.70;;
74670;SDS011;63196;39.564;2.628;2023-06-10T02:20:59;9.30;;;2.50;;
74670;SDS011;63196;39.564;2.628;2023-06-10T02:23:25;7.00;;;2.40;;
74670;SDS011;63196;39.564;2.628;2023-06-10T02:25:50;7.00;;;2.30;;
74670;SDS011;63196;39.564;2.628;2023-06-10T02:28:15;9.50;;;2.80;;
74670;SDS011;63196;39.564;2.628;2023-06-10T02:30:41;5.60;;;2.60;;
74670;SDS011;63196;39.564;2.628;2023-06-10T02:33:07;8.20;;;2.80;;
74670;SDS011;63196;39.564;2.628;2023-06-10T02:38:00;5.30;;;2.50;;
74670;SDS011;63196;39.564;2.628;2023-06-10T02:40:25;5.80;;;2.50;;
74670;SDS011;63196;39.564;2.628;2023-06-10T02:42:51;4.30;;;2.10;;
74670;SDS011;63196;39.564;2.628;2023-06-10T02:45:16;7.00;;;2.50;;
74670;SDS011;63196;39.564;2.628;2023-06-10T02:47:41;4.60;;;2.40;;
74670;SDS011;63196;39.564;2.628;2023-06-10T02:50:07;5.20;;;2.00;;
74670;SDS011;63196;39.564;2.628;2023-06-10T02:52:32;6.60;;;2.50;;
74670;SDS011;63196;39.564;2.628;2023-06-10T02:54:58;7.50;;;2.80;;
74670;SDS011;63196;39.564;2.628;2023-06-10T02:57:24;6.80;;;2.90;;
74670;SDS011;63196;39.564;2.628;2023-06-10T02:59:49;5.20;;;1.90;;
74670;SDS011;63196;39.564;2.628;2023-06-10T03:02:16;7.10;;;2.50;;
74670;SDS011;63196;39.564;2.628;2023-06-10T03:04:41;6.50;;;2.20;;
74670;SDS011;63196;39.564;2.628;2023-06-10T03:07:08;5.50;;;2.40;;
74670;SDS011;63196;39.564;2.628;2023-06-10T03:09:36;6.50;;;2.40;;
74670;SDS011;63196;39.564;2.628;2023-06-10T03:12:02;8.70;;;2.70;;
74670;SDS011;63196;39.564;2.628;2023-06-10T03:14:27;7.90;;;2.50;;
74670;SDS011;63196;39.564;2.628;2023-06-10T03:16:53;5.60;;;2.50;;
74670;SDS011;63196;39.564;2.628;2023-06-10T03:19:18;8.00;;;2.10;;
74670;SDS011;63196;39.564;2.628;2023-06-10T03:21:44;7.70;;;2.30;;
74670;SDS011;63196;39.564;2.628;2023-06-10T03:24:10;8.30;;;2.80;;
74670;SDS011;63196;39.564;2.628;2023-06-10T03:26:36;9.00;;;3.00;;
74670;SDS011;63196;39.564;2.628;2023-06-10T03:29:01;10.20;;;3.10;;
74670;SDS011;63196;39.564;2.628;2023-06-10T03:31:27;9.00;;;2.90;;
74670;SDS011;63196;39.564;2.628;2023-06-10T03:33:52;6.30;;;2.50;;
74670;SDS011;63196;39.564;2.628;2023-06-10T03:36:18;5.00;;;2.10;;
74670;SDS011;63196;39.564;2.628;2023-06-10T03:38:43;7.70;;;2.60;;
74670;SDS011;63196;39.564;2.628;2023-06-10T03:41:08;6.40;;;3.20;;
74670;SDS011;63196;39.564;2.628;2023-06-10T03:43:34;7.80;;;2.40;;
74670;SDS011;63196;39.564;2.628;2023-06-10T03:45:59;5.20;;;2.50;;
74670;SDS011;63196;39.564;2.628;2023-06-10T03:48:24;5.30;;;2.40;;
74670;SDS011;63196;39.564;2.628;2023-06-10T03:50:50;6.60;;;2.30;;
74670;SDS011;63196;39.564;2.628;2023-06-10T03:53:16;5.40;;;2.20;;
74670;SDS011;63196;39.564;2.628;2023-06-10T03:55:41;7.20;;;2.70;;
74670;SDS011;63196;39.564;2.628;2023-06-10T03:58:07;5.70;;;2.40;;
74670;SDS011;63196;39.564;2.628;2023-06-10T04:00:32;6.20;;;2.30;;
74670;SDS011;63196;39.564;2.628;2023-06-10T04:03:06;5.80;;;2.30;;
74670;SDS011;63196;39.564;2.628;2023-06-10T04:07:59;6.00;;;2.50;;
74670;SDS011;63196;39.564;2.628;2023-06-10T04:10:26;6.60;;;2.50;;
74670;SDS011;63196;39.564;2.628;2023-06-10T04:12:52;7.20;;;2.30;;
74670;SDS011;63196;39.564;2.628;2023-06-10T04:15:17;6.60;;;2.70;;
74670;SDS011;63196;39.564;2.628;2023-06-10T04:17:43;8.70;;;2.60;;
74670;SDS011;63196;39.564;2.628;2023-06-10T04:20:08;5.80;;;2.10;;
74670;SDS011;63196;39.564;2.628;2023-06-10T04:22:35;7.90;;;2.20;;
74670;SDS011;63196;39.564;2.628;2023-06-10T04:25:01;5.70;;;1.90;;
74670;SDS011;63196;39.564;2.628;2023-06-10T04:27:26;7.60;;;2.00;;
74670;SDS011;63196;39.564;2.628;2023-06-10T04:29:52;6.40;;;2.30;;
74670;SDS011;63196;39.564;2.628;2023-06-10T04:32:17;7.00;;;2.20;;
74670;SDS011;63196;39.564;2.628;2023-06-10T04:34:43;4.10;;;1.70;;
74670;SDS011;63196;39.564;2.628;2023-06-10T04:37:08;7.20;;;2.40;;
74670;SDS011;63196;39.564;2.628;2023-06-10T04:39:33;7.10;;;2.40;;
74670;SDS011;63196;39.564;2.628;2023-06-10T04:41:59;6.10;;;2.50;;
74670;SDS011;63196;39.564;2.628;2023-06-10T04:44:24;5.10;;;2.10;;
74670;SDS011;63196;39.564;2.628;2023-06-10T04:46:50;5.50;;;2.20;;
74670;SDS011;63196;39.564;2.628;2023-06-10T04:49:15;5.00;;;2.40;;
74670;SDS011;63196;39.564;2.628;2023-06-10T04:51:41;5.70;;;2.20;;
74670;SDS011;63196;39.564;2.628;2023-06-10T04:54:06;6.10;;;2.50;;
74670;SDS011;63196;39.564;2.628;2023-06-10T04:56:31;6.00;;;2.20;;
74670;SDS011;63196;39.564;2.628;2023-06-10T04:58:57;6.00;;;2.10;;
74670;SDS011;63196;39.564;2.628;2023-06-10T05:01:23;6.30;;;2.20;;
74670;SDS011;63196;39.564;2.628;2023-06-10T05:03:48;6.70;;;2.50;;
74670;SDS011;63196;39.564;2.628;2023-06-10T05:06:13;7.20;;;2.10;;
74670;SDS011;63196;39.564;2.628;2023-06-10T05:08:39;4.50;;;2.10;;
74670;SDS011;63196;39.564;2.628;2023-06-10T05:11:04;5.70;;;2.40;;
74670;SDS011;63196;39.564;2.628;2023-06-10T05:13:30;8.10;;;2.20;;
74670;SDS011;63196;39.564;2.628;2023-06-10T05:15:55;7.70;;;2.60;;
74670;SDS011;63196;39.564;2.628;2023-06-10T05:18:20;7.00;;;2.30;;
74670;SDS011;63196;39.564;2.628;2023-06-10T05:20:46;7.80;;;2.50;;
74670;SDS011;63196;39.564;2.628;2023-06-10T05:23:11;8.30;;;2.80;;
74670;SDS011;63196;39.564;2.628;2023-06-10T05:25:37;5.90;;;2.40;;
74670;SDS011;63196;39.564;2.628;2023-06-10T05:28:02;6.70;;;2.30;;
74670;SDS011;63196;39.564;2.628;2023-06-10T05:30:28;7.80;;;2.90;;
74670;SDS011;63196;39.564;2.628;2023-06-10T05:32:53;6.30;;;2.90;;
74670;SDS011;63196;39.564;2.628;2023-06-10T05:35:18;11.80;;;2.70;;
74670;SDS011;63196;39.564;2.628;2023-06-10T05:37:44;7.90;;;3.00;;
74670;SDS011;63196;39.564;2.628;2023-06-10T05:40:09;7.80;;;2.80;;
74670;SDS011;63196;39.564;2.628;2023-06-10T05:42:35;8.90;;;3.40;;
74670;SDS011;63196;39.564;2.628;2023-06-10T05:45:00;9.60;;;2.60;;
74670;SDS011;63196;39.564;2.628;2023-06-10T05:47:27;8.20;;;3.40;;
74670;SDS011;63196;39.564;2.628;2023-06-10T05:49:53;9.70;;;2.70;;
74670;SDS011;63196;39.564;2.628;2023-06-10T05:52:18;8.70;;;2.90;;
74670;SDS011;63196;39.564;2.628;2023-06-10T05:54:43;7.80;;;3.00;;
74670;SDS011;63196;39.564;2.628;2023-06-10T05:57:09;6.60;;;3.10;;
74670;SDS011;63196;39.564;2.628;2023-06-10T05:59:35;7.70;;;2.80;;
74670;SDS011;63196;39.564;2.628;2023-06-10T06:02:01;7.70;;;2.80;;
74670;SDS011;63196;39.564;2.628;2023-06-10T06:04:26;8.70;;;2.80;;
74670;SDS011;63196;39.564;2.628;2023-06-10T06:06:51;5.80;;;2.40;;
74670;SDS011;63196;39.564;2.628;2023-06-10T06:09:17;11.60;;;2.90;;
74670;SDS011;63196;39.564;2.628;2023-06-10T06:11:42;11.50;;;2.90;;
74670;SDS011;63196;39.564;2.628;2023-06-10T06:14:07;6.90;;;2.80;;
74670;SDS011;63196;39.564;2.628;2023-06-10T06:16:33;7.50;;;2.40;;
74670;SDS011;63196;39.564;2.628;2023-06-10T06:18:58;6.90;;;2.80;;
74670;SDS011;63196;39.564;2.628;2023-06-10T06:21:24;8.90;;;2.90;;
74670;SDS011;63196;39.564;2.628;2023-06-10T06:23:49;6.00;;;2.70;;
74670;SDS011;63196;39.564;2.628;2023-06-10T06:26:14;23.70;;;4.50;;
74670;SDS011;63196;39.564;2.628;2023-06-10T06:28:40;6.90;;;2.70;;
74670;SDS011;63196;39.564;2.628;2023-06-10T06:31:06;11.10;;;3.80;;
74670;SDS011;63196;39.564;2.628;2023-06-10T06:33:31;8.10;;;2.60;;
74670;SDS011;63196;39.564;2.628;2023-06-10T06:35:57;6.70;;;2.50;;
74670;SDS011;63196;39.564;2.628;2023-06-10T06:38:22;8.00;;;3.00;;
74670;SDS011;63196;39.564;2.628;2023-06-10T06:40:48;8.20;;;3.10;;
74670;SDS011;63196;39.564;2.628;2023-06-10T06:43:13;11.40;;;3.20;;
74670;SDS011;63196;39.564;2.628;2023-06-10T06:45:38;5.80;;;2.20;;
74670;SDS011;63196;39.564;2.628;2023-06-10T06:48:05;11.80;;;2.70;;
74670;SDS011;63196;39.564;2.628;2023-06-10T06:50:30;9.40;;;4.10;;
74670;SDS011;63196;39.564;2.628;2023-06-10T06:52:56;10.30;;;2.60;;
74670;SDS011;63196;39.564;2.628;2023-06-10T06:55:21;6.70;;;2.40;;
74670;SDS011;63196;39.564;2.628;2023-06-10T06:57:46;9.50;;;3.20;;
74670;SDS011;63196;39.564;2.628;2023-06-10T07:00:12;6.40;;;2.90;;
74670;SDS011;63196;39.564;2.628;2023-06-10T07:02:37;6.60;;;3.00;;
74670;SDS011;63196;39.564;2.628;2023-06-10T07:05:03;6.60;;;2.80;;
74670;SDS011;63196;39.564;2.628;2023-06-10T07:07:28;10.80;;;2.40;;
74670;SDS011;63196;39.564;2.628;2023-06-10T07:09:54;8.00;;;2.60;;
74670;SDS011;63196;39.564;2.628;2023-06-10T07:12:19;7.30;;;3.40;;
74670;SDS011;63196;39.564;2.628;2023-06-10T07:14:47;6.20;;;2.50;;
74670;SDS011;63196;39.564;2.628;2023-06-10T07:17:12;7.90;;;2.60;;
74670;SDS011;63196;39.564;2.628;2023-06-10T07:19:38;9.00;;;2.20;;
74670;SDS011;63196;39.564;2.628;2023-06-10T07:22:03;10.30;;;2.00;;
74670;SDS011;63196;39.564;2.628;2023-06-10T07:24:28;8.40;;;2.90;;
74670;SDS011;63196;39.564;2.628;2023-06-10T07:26:54;5.60;;;2.10;;
74670;SDS011;63196;39.564;2.628;2023-06-10T07:29:19;8.30;;;2.40;;
74670;SDS011;63196;39.564;2.628;2023-06-10T07:31:45;7.70;;;2.10;;
74670;SDS011;63196;39.564;2.628;2023-06-10T07:34:10;6.70;;;2.60;;
74670;SDS011;63196;39.564;2.628;2023-06-10T07:36:35;6.10;;;1.90;;
74670;SDS011;63196;39.564;2.628;2023-06-10T07:39:01;6.20;;;2.50;;
74670;SDS011;63196;39.564;2.628;2023-06-10T07:41:27;7.00;;;2.00;;
74670;SDS011;63196;39.564;2.628;2023-06-10T07:43:52;9.90;;;2.40;;
74670;SDS011;63196;39.564;2.628;2023-06-10T07:46:20;6.90;;;2.30;;
74670;SDS011;63196;39.564;2.628;2023-06-10T07:48:46;6.00;;;2.10;;
74670;SDS011;63196;39.564;2.628;2023-06-10T07:51:11;5.40;;;1.80;;
74670;SDS011;63196;39.564;2.628;2023-06-10T07:53:37;7.70;;;1.90;;
74670;SDS011;63196;39.564;2.628;2023-06-10T07:56:02;7.30;;;2.30;;
74670;SDS011;63196;39.564;2.628;2023-06-10T07:58:28;8.20;;;2.50;;
74670;SDS011;63196;39.564;2.628;2023-06-10T08:00:53;8.50;;;2.10;;
74670;SDS011;63196;39.564;2.628;2023-06-10T08:03:19;6.20;;;2.40;;
74670;SDS011;63196;39.564;2.628;2023-06-10T08:05:44;8.70;;;2.50;;
74670;SDS011;63196;39.564;2.628;2023-06-10T08:08:10;7.90;;;2.60;;
74670;SDS011;63196;39.564;2.628;2023-06-10T08:10:35;4.80;;;2.40;;
74670;SDS011;63196;39.564;2.628;2023-06-10T08:13:00;7.30;;;2.20;;
74670;SDS011;63196;39.564;2.628;2023-06-10T08:15:26;7.40;;;2.30;;
74670;SDS011;63196;39.564;2.628;2023-06-10T08:17:51;10.40;;;2.30;;
74670;SDS011;63196;39.564;2.628;2023-06-10T08:20:17;6.70;;;2.30;;
74670;SDS011;63196;39.564;2.628;2023-06-10T08:22:43;6.50;;;2.20;;
74670;SDS011;63196;39.564;2.628;2023-06-10T08:25:08;5.60;;;2.20;;
74670;SDS011;63196;39.564;2.628;2023-06-10T08:27:33;7.40;;;2.60;;
74670;SDS011;63196;39.564;2.628;2023-06-10T08:29:59;6.50;;;2.30;;
74670;SDS011;63196;39.564;2.628;2023-06-10T08:32:25;4.70;;;1.90;;
74670;SDS011;63196;39.564;2.628;2023-06-10T08:34:51;5.70;;;2.10;;
74670;SDS011;63196;39.564;2.628;2023-06-10T08:37:16;6.10;;;2.30;;
74670;SDS011;63196;39.564;2.628;2023-06-10T08:39:41;7.70;;;2.30;;
74670;SDS011;63196;39.564;2.628;2023-06-10T08:44:32;7.10;;;2.70;;
74670;SDS011;63196;39.564;2.628;2023-06-10T08:47:03;10.50;;;2.50;;
74670;SDS011;63196;39.564;2.628;2023-06-10T08:49:34;5.30;;;2.00;;
74670;SDS011;63196;39.564;2.628;2023-06-10T08:52:03;5.00;;;1.70;;
74670;SDS011;63196;39.564;2.628;2023-06-10T08:54:31;5.30;;;2.10;;
74670;SDS011;63196;39.564;2.628;2023-06-10T08:56:57;8.30;;;2.50;;
74670;SDS011;63196;39.564;2.628;2023-06-10T08:59:25;6.40;;;2.20;;
74670;SDS011;63196;39.564;2.628;2023-06-10T09:01:50;7.40;;;2.00;;
74670;SDS011;63196;39.564;2.628;2023-06-10T09:04:17;7.60;;;3.00;;
74670;SDS011;63196;39.564;2.628;2023-06-10T09:06:43;9.40;;;2.30;;
74670;SDS011;63196;39.564;2.628;2023-06-10T09:09:09;6.80;;;1.60;;
74670;SDS011;63196;39.564;2.628;2023-06-10T09:11:35;7.70;;;2.00;;
74670;SDS011;63196;39.564;2.628;2023-06-10T09:14:00;8.70;;;2.40;;
74670;SDS011;63196;39.564;2.628;2023-06-10T09:16:26;7.80;;;2.00;;
74670;SDS011;63196;39.564;2.628;2023-06-10T09:18:51;7.00;;;1.80;;
74670;SDS011;63196;39.564;2.628;2023-06-10T09:21:23;4.90;;;2.00;;
74670;SDS011;63196;39.564;2.628;2023-06-10T09:23:51;7.10;;;1.50;;
74670;SDS011;63196;39.564;2.628;2023-06-10T09:26:17;6.50;;;1.60;;
74670;SDS011;63196;39.564;2.628;2023-06-10T09:28:43;5.20;;;1.60;;
74670;SDS011;63196;39.564;2.628;2023-06-10T09:31:09;6.30;;;1.90;;
74670;SDS011;63196;39.564;2.628;2023-06-10T09:33:38;7.10;;;1.70;;
74670;SDS011;63196;39.564;2.628;2023-06-10T09:36:06;6.60;;;1.80;;
74670;SDS011;63196;39.564;2.628;2023-06-10T09:38:32;7.40;;;1.70;;
74670;SDS011;63196;39.564;2.628;2023-06-10T09:40:58;7.40;;;1.80;;
74670;SDS011;63196;39.564;2.628;2023-06-10T09:43:38;6.80;;;2.00;;
74670;SDS011;63196;39.564;2.628;2023-06-10T09:46:03;6.80;;;2.30;;
74670;SDS011;63196;39.564;2.628;2023-06-10T09:48:28;5.50;;;2.00;;
74670;SDS011;63196;39.564;2.628;2023-06-10T09:50:54;7.70;;;1.90;;
74670;SDS011;63196;39.564;2.628;2023-06-10T09:53:20;6.00;;;1.80;;
74670;SDS011;63196;39.564;2.628;2023-06-10T09:55:46;7.70;;;1.70;;
74670;SDS011;63196;39.564;2.628;2023-06-10T09:58:11;7.20;;;1.70;;
74670;SDS011;63196;39.564;2.628;2023-06-10T10:00:36;5.80;;;1.40;;
74670;SDS011;63196;39.564;2.628;2023-06-10T10:03:02;4.90;;;1.70;;
74670;SDS011;63196;39.564;2.628;2023-06-10T10:05:28;5.80;;;1.60;;
74670;SDS011;63196;39.564;2.628;2023-06-10T10:07:54;5.80;;;1.60;;
74670;SDS011;63196;39.564;2.628;2023-06-10T10:10:21;8.50;;;2.20;;
74670;SDS011;63196;39.564;2.628;2023-06-10T10:12:47;5.70;;;1.60;;
74670;SDS011;63196;39.564;2.628;2023-06-10T10:15:13;6.70;;;1.70;;
74670;SDS011;63196;39.564;2.628;2023-06-10T10:17:44;8.60;;;1.90;;
74670;SDS011;63196;39.564;2.628;2023-06-10T10:20:12;6.40;;;1.60;;
74670;SDS011;63196;39.564;2.628;2023-06-10T10:22:38;5.40;;;1.50;;
74670;SDS011;63196;39.564;2.628;2023-06-10T10:25:11;9.90;;;2.00;;
74670;SDS011;63196;39.564;2.628;2023-06-10T10:27:42;6.90;;;1.90;;
74670;SDS011;63196;39.564;2.628;2023-06-10T10:30:09;8.10;;;2.10;;
74670;SDS011;63196;39.564;2.628;2023-06-10T10:35:21;6.90;;;1.80;;
74670;SDS011;63196;39.564;2.628;2023-06-10T10:37:48;5.00;;;1.30;;
74670;SDS011;63196;39.564;2.628;2023-06-10T10:40:14;5.70;;;1.20;;
74670;SDS011;63196;39.564;2.628;2023-06-10T10:42:40;8.10;;;2.00;;
74670;SDS011;63196;39.564;2.628;2023-06-10T10:45:06;6.40;;;1.60;;
74670;SDS011;63196;39.564;2.628;2023-06-10T10:47:32;8.90;;;2.00;;
74670;SDS011;63196;39.564;2.628;2023-06-10T10:49:58;6.10;;;1.90;;
74670;SDS011;63196;39.564;2.628;2023-06-10T10:52:25;5.20;;;1.80;;
74670;SDS011;63196;39.564;2.628;2023-06-10T10:54:53;7.50;;;1.90;;
74670;SDS011;63196;39.564;2.628;2023-06-10T10:57:19;7.60;;;1.60;;
74670;SDS011;63196;39.564;2.628;2023-06-10T10:59:45;4.90;;;1.80;;
74670;SDS011;63196;39.564;2.628;2023-06-10T11:02:15;6.20;;;1.70;;
74670;SDS011;63196;39.564;2.628;2023-06-10T11:04:46;7.40;;;1.70;;
74670;SDS011;63196;39.564;2.628;2023-06-10T11:07:11;8.50;;;1.90;;
74670;SDS011;63196;39.564;2.628;2023-06-10T11:12:40;7.20;;;1.60;;
74670;SDS011;63196;39.564;2.628;2023-06-10T11:15:05;6.70;;;1.60;;
74670;SDS011;63196;39.564;2.628;2023-06-10T11:17:31;6.70;;;1.70;;
74670;SDS011;63196;39.564;2.628;2023-06-10T11:19:56;4.50;;;1.60;;
74670;SDS011;63196;39.564;2.628;2023-06-10T11:22:23;5.20;;;1.80;;
74670;SDS011;63196;39.564;2.628;2023-06-10T11:24:52;7.40;;;1.70;;
74670;SDS011;63196;39.564;2.628;2023-06-10T11:27:20;5.80;;;2.20;;
74670;SDS011;63196;39.564;2.628;2023-06-10T11:32:32;6.00;;;1.80;;
74670;SDS011;63196;39.564;2.628;2023-06-10T11:34:57;6.10;;;1.50;;
74670;SDS011;63196;39.564;2.628;2023-06-10T11:37:23;6.10;;;1.90;;
74670;SDS011;63196;39.564;2.628;2023-06-10T11:39:52;5.40;;;1.80;;
74670;SDS011;63196;39.564;2.628;2023-06-10T11:42:18;5.60;;;1.80;;
74670;SDS011;63196;39.564;2.628;2023-06-10T11:44:48;6.60;;;2.00;;
74670;SDS011;63196;39.564;2.628;2023-06-10T11:47:13;4.60;;;1.70;;
74670;SDS011;63196;39.564;2.628;2023-06-10T11:49:38;5.20;;;1.90;;
74670;SDS011;63196;39.564;2.628;2023-06-10T11:52:04;4.60;;;2.50;;
74670;SDS011;63196;39.564;2.628;2023-06-10T11:54:30;3.80;;;1.80;;
74670;SDS011;63196;39.564;2.628;2023-06-10T11:56:58;7.70;;;1.70;;
74670;SDS011;63196;39.564;2.628;2023-06-10T11:59:28;5.60;;;2.00;;
74670;SDS011;63196;39.564;2.628;2023-06-10T12:01:54;6.30;;;1.90;;
74670;SDS011;63196;39.564;2.628;2023-06-10T12:04:19;4.50;;;2.00;;
74670;SDS011;63196;39.564;2.628;2023-06-10T12:06:46;6.10;;;2.20;;
74670;SDS011;63196;39.564;2.628;2023-06-10T12:09:22;5.50;;;1.80;;
74670;SDS011;63196;39.564;2.628;2023-06-10T12:11:49;8.00;;;2.20;;
74670;SDS011;63196;39.564;2.628;2023-06-10T12:14:14;8.10;;;2.60;;
74670;SDS011;63196;39.564;2.628;2023-06-10T12:16:40;6.20;;;1.80;;
74670;SDS011;63196;39.564;2.628;2023-06-10T12:19:05;6.50;;;2.30;;
74670;SDS011;63196;39.564;2.628;2023-06-10T12:24:04;6.80;;;2.50;;
74670;SDS011;63196;39.564;2.628;2023-06-10T12:26:36;5.80;;;2.10;;
74670;SDS011;63196;39.564;2.628;2023-06-10T12:29:12;7.90;;;2.30;;
74670;SDS011;63196;39.564;2.628;2023-06-10T12:31:54;5.90;;;2.40;;
74670;SDS011;63196;39.564;2.628;2023-06-10T12:34:20;7.70;;;2.70;;
74670;SDS011;63196;39.564;2.628;2023-06-10T12:36:53;4.60;;;2.10;;
74670;SDS011;63196;39.564;2.628;2023-06-10T12:39:18;4.30;;;1.70;;
74670;SDS011;63196;39.564;2.628;2023-06-10T12:41:47;4.70;;;2.80;;
74670;SDS011;63196;39.564;2.628;2023-06-10T12:44:13;6.30;;;2.00;;
74670;SDS011;63196;39.564;2.628;2023-06-10T12:46:39;4.70;;;2.00;;
74670;SDS011;63196;39.564;2.628;2023-06-10T12:49:04;5.20;;;3.20;;
74670;SDS011;63196;39.564;2.628;2023-06-10T12:51:30;5.70;;;2.50;;
74670;SDS011;63196;39.564;2.628;2023-06-10T12:53:55;5.70;;;2.20;;
74670;SDS011;63196;39.564;2.628;2023-06-10T12:56:20;5.00;;;2.20;;
74670;SDS011;63196;39.564;2.628;2023-06-10T12:58:47;5.70;;;2.10;;
74670;SDS011;63196;39.564;2.628;2023-06-10T13:01:13;7.10;;;2.40;;
74670;SDS011;63196;39.564;2.628;2023-06-10T13:03:38;7.10;;;2.60;;
74670;SDS011;63196;39.564;2.628;2023-06-10T13:06:05;5.60;;;1.90;;
74670;SDS011;63196;39.564;2.628;2023-06-10T13:08:31;4.80;;;2.40;;
74670;SDS011;63196;39.564;2.628;2023-06-10T13:10:57;6.80;;;2.50;;
74670;SDS011;63196;39.564;2.628;2023-06-10T13:13:23;4.60;;;2.40;;
74670;SDS011;63196;39.564;2.628;2023-06-10T13:15:48;5.50;;;2.20;;
74670;SDS011;63196;39.564;2.628;2023-06-10T13:18:15;7.30;;;2.50;;
74670;SDS011;63196;39.564;2.628;2023-06-10T13:20:43;6.00;;;2.30;;
74670;SDS011;63196;39.564;2.628;2023-06-10T13:23:08;6.60;;;2.90;;
74670;SDS011;63196;39.564;2.628;2023-06-10T13:25:33;5.80;;;2.00;;
74670;SDS011;63196;39.564;2.628;2023-06-10T13:27:59;5.20;;;2.00;;
74670;SDS011;63196;39.564;2.628;2023-06-10T13:30:24;6.90;;;1.90;;
74670;SDS011;63196;39.564;2.628;2023-06-10T13:32:50;4.00;;;1.60;;
74670;SDS011;63196;39.564;2.628;2023-06-10T13:35:15;5.10;;;1.80;;
74670;SDS011;63196;39.564;2.628;2023-06-10T13:37:40;5.20;;;1.60;;
74670;SDS011;63196;39.564;2.628;2023-06-10T13:40:06;5.70;;;1.60;;
74670;SDS011;63196;39.564;2.628;2023-06-10T13:42:32;5.40;;;1.60;;
74670;SDS011;63196;39.564;2.628;2023-06-10T13:44:59;4.80;;;1.30;;
74670;SDS011;63196;39.564;2.628;2023-06-10T13:47:24;4.20;;;1.70;;
74670;SDS011;63196;39.564;2.628;2023-06-10T13:52:19;7.60;;;1.90;;
74670;SDS011;63196;39.564;2.628;2023-06-10T13:54:47;5.00;;;1.90;;
74670;SDS011;63196;39.564;2.628;2023-06-10T13:57:15;4.40;;;1.70;;
74670;SDS011;63196;39.564;2.628;2023-06-10T13:59:41;4.00;;;1.50;;
74670;SDS011;63196;39.564;2.628;2023-06-10T14:02:06;4.20;;;1.60;;
74670;SDS011;63196;39.564;2.628;2023-06-10T14:04:32;5.30;;;1.70;;
74670;SDS011;63196;39.564;2.628;2023-06-10T14:06:57;4.50;;;1.80;;
74670;SDS011;63196;39.564;2.628;2023-06-10T14:09:23;6.40;;;2.40;;
74670;SDS011;63196;39.564;2.628;2023-06-10T14:11:48;5.60;;;1.90;;
74670;SDS011;63196;39.564;2.628;2023-06-10T14:14:14;6.00;;;1.90;;
74670;SDS011;63196;39.564;2.628;2023-06-10T14:16:40;5.60;;;1.70;;
74670;SDS011;63196;39.564;2.628;2023-06-10T14:19:05;6.40;;;2.10;;
74670;SDS011;63196;39.564;2.628;2023-06-10T14:21:30;5.30;;;1.90;;
74670;SDS011;63196;39.564;2.628;2023-06-10T14:23:56;5.10;;;2.20;;
74670;SDS011;63196;39.564;2.628;2023-06-10T14:26:21;6.20;;;1.90;;
74670;SDS011;63196;39.564;2.628;2023-06-10T14:28:47;7.10;;;2.60;;
74670;SDS011;63196;39.564;2.628;2023-06-10T14:31:12;5.00;;;1.60;;
74670;SDS011;63196;39.564;2.628;2023-06-10T14:33:38;5.70;;;2.00;;
74670;SDS011;63196;39.564;2.628;2023-06-10T14:36:04;6.90;;;2.10;;
74670;SDS011;63196;39.564;2.628;2023-06-10T14:38:30;5.40;;;2.00;;
74670;SDS011;63196;39.564;2.628;2023-06-10T14:40:55;4.80;;;1.70;;
74670;SDS011;63196;39.564;2.628;2023-06-10T14:43:20;4.80;;;1.70;;
74670;SDS011;63196;39.564;2.628;2023-06-10T14:45:46;5.30;;;1.70;;
74670;SDS011;63196;39.564;2.628;2023-06-10T14:48:11;5.20;;;1.80;;
74670;SDS011;63196;39.564;2.628;2023-06-10T14:53:03;5.50;;;1.90;;
74670;SDS011;63196;39.564;2.628;2023-06-10T14:55:28;5.20;;;1.60;;
74670;SDS011;63196;39.564;2.628;2023-06-10T14:57:54;4.90;;;1.90;;
74670;SDS011;63196;39.564;2.628;2023-06-10T15:00:21;6.10;;;1.90;;
74670;SDS011;63196;39.564;2.628;2023-06-10T15:02:49;6.30;;;1.60;;
74670;SDS011;63196;39.564;2.628;2023-06-10T15:05:14;5.30;;;2.00;;
74670;SDS011;63196;39.564;2.628;2023-06-10T15:07:41;4.80;;;1.90;;